Time;durP1;ratioP1;P1;durP2;ratioP2;P2;SDS_P1;SDS_P2;PMS_P1;PMS_P2;Temp;Humidity;BMP_temperature;BMP_pressure;BME280_temperature;BME280_humidity;BME280_pressure;Samples;Min_cycle;Max_cycle;Signal;HPM_P1;HPM_P2
2022/12/06 00:01:25;;;;;;;16.98;5.20;;;6.40;99.90;;;;;;5041838;28;20040;-69
2022/12/06 00:03:54;;;;;;;18.10;5.18;;;6.40;99.90;;;;;;5035316;28;20021;-70
2022/12/06 00:06:22;;;;;;;20.17;5.93;;;6.40;99.90;;;;;;5039202;28;20365;-70
2022/12/06 00:08:49;;;;;;;17.45;5.10;;;6.50;99.90;;;;;;5031247;28;20476;-69
2022/12/06 00:11:17;;;;;;;21.10;5.53;;;6.50;99.90;;;;;;5042553;28;20042;-68
2022/12/06 00:13:44;;;;;;;15.25;4.85;;;6.50;99.90;;;;;;5034542;28;20469;-67
2022/12/06 00:16:12;;;;;;;17.23;4.70;;;6.50;99.90;;;;;;5032339;28;20052;-68
2022/12/06 00:18:39;;;;;;;14.80;4.25;;;6.50;99.90;;;;;;5032101;28;20370;-69
2022/12/06 00:21:08;;;;;;;18.20;4.70;;;6.40;99.90;;;;;;5030107;28;20084;-68
2022/12/06 00:23:40;;;;;;;14.65;4.50;;;6.50;99.90;;;;;;5034419;28;20032;-70
2022/12/06 00:26:06;;;;;;;12.73;4.20;;;6.40;99.90;;;;;;5031206;28;20642;-69
2022/12/06 00:28:33;;;;;;;13.43;4.20;;;6.40;99.90;;;;;;5039300;28;20258;-68
2022/12/06 00:31:00;;;;;;;12.75;4.38;;;6.30;99.90;;;;;;5039284;28;20473;-67
2022/12/06 00:33:27;;;;;;;11.27;3.53;;;6.30;99.90;;;;;;5041461;28;20053;-68
2022/12/06 00:36:01;;;;;;;13.77;4.03;;;6.30;99.90;;;;;;5049478;28;20068;-68
2022/12/06 00:38:27;;;;;;;14.07;4.10;;;6.30;99.90;;;;;;5034783;28;20029;-69
2022/12/06 00:41:09;;;;;;;14.35;4.25;;;6.30;99.90;;;;;;5039551;28;20052;-68
2022/12/06 00:43:35;;;;;;;14.32;4.72;;;6.30;99.90;;;;;;5024788;28;20041;-71
2022/12/06 00:46:02;;;;;;;15.68;4.60;;;6.40;99.90;;;;;;5046286;28;20099;-70
2022/12/06 00:48:28;;;;;;;13.98;4.35;;;6.40;99.90;;;;;;5047861;28;20112;-69
2022/12/06 00:50:54;;;;;;;14.30;3.78;;;6.40;99.90;;;;;;5046671;28;20406;-67
2022/12/06 00:53:20;;;;;;;8.63;3.47;;;6.40;99.90;;;;;;5040410;28;20025;-67
2022/12/06 00:55:46;;;;;;;14.02;3.45;;;6.40;99.90;;;;;;5042611;28;20071;-68
2022/12/06 00:58:12;;;;;;;11.18;3.58;;;6.50;99.90;;;;;;5035779;28;20462;-69
2022/12/06 01:00:38;;;;;;;22.38;3.65;;;6.50;99.90;;;;;;5028056;28;20021;-70
2022/12/06 01:03:04;;;;;;;10.15;2.92;;;6.40;99.90;;;;;;5048123;28;20461;-69
2022/12/06 01:05:30;;;;;;;8.10;2.90;;;6.40;99.90;;;;;;5044350;28;20018;-69
2022/12/06 01:07:56;;;;;;;7.97;2.33;;;6.40;99.90;;;;;;5049319;28;20750;-70
2022/12/06 01:10:22;;;;;;;14.40;4.38;;;6.40;99.90;;;;;;5037982;28;20374;-66
2022/12/06 01:12:47;;;;;;;7.97;3.00;;;6.40;99.90;;;;;;5048908;28;20033;-70
2022/12/06 01:15:13;;;;;;;10.00;4.32;;;6.50;99.90;;;;;;5043117;28;20052;-70
2022/12/06 01:17:38;;;;;;;7.53;3.50;;;6.50;99.90;;;;;;5044100;28;20021;-69
2022/12/06 01:20:05;;;;;;;6.72;3.25;;;6.50;99.90;;;;;;5039720;28;20130;-68
2022/12/06 01:22:31;;;;;;;11.88;5.22;;;6.50;99.90;;;;;;5051167;28;20029;-68
2022/12/06 01:24:56;;;;;;;16.38;7.22;;;6.50;99.90;;;;;;5041044;28;20075;-68
2022/12/06 01:27:22;;;;;;;15.68;5.60;;;6.50;99.90;;;;;;5045333;28;20021;-69
2022/12/06 01:29:48;;;;;;;15.35;4.57;;;6.60;99.90;;;;;;5047314;28;20065;-70
2022/12/06 01:32:13;;;;;;;12.25;5.03;;;6.60;99.90;;;;;;5038014;28;20041;-71
2022/12/06 01:34:39;;;;;;;9.73;4.57;;;6.60;99.90;;;;;;5027560;28;20025;-68
2022/12/06 01:37:04;;;;;;;12.63;4.55;;;6.60;99.90;;;;;;5047561;28;20025;-70
2022/12/06 01:39:30;;;;;;;14.50;8.07;;;6.60;99.90;;;;;;5041750;28;20416;-69
2022/12/06 01:41:56;;;;;;;15.38;8.02;;;6.60;99.90;;;;;;5053949;28;20025;-67
2022/12/06 01:44:38;;;;;;;11.15;5.22;;;6.60;99.90;;;;;;5052567;28;20136;-70
2022/12/06 01:47:05;;;;;;;10.88;4.10;;;6.60;99.90;;;;;;5040940;28;20059;-69
2022/12/06 01:49:34;;;;;;;10.80;5.40;;;6.50;99.90;;;;;;5047581;28;20032;-68
2022/12/06 01:52:08;;;;;;;7.63;2.90;;;6.50;99.90;;;;;;5045039;28;20037;-68
2022/12/06 01:54:35;;;;;;;10.98;2.80;;;6.50;99.90;;;;;;5051286;28;20024;-69
2022/12/06 01:57:03;;;;;;;4.18;2.75;;;6.50;99.90;;;;;;5040950;28;20031;-67
2022/12/06 01:59:30;;;;;;;5.40;2.25;;;6.40;99.90;;;;;;5043727;28;20021;-69
2022/12/06 02:01:56;;;;;;;6.63;2.28;;;6.50;99.90;;;;;;5048421;28;20028;-68
2022/12/06 02:04:22;;;;;;;7.18;2.50;;;6.40;99.90;;;;;;5037349;28;20021;-70
2022/12/06 02:06:49;;;;;;;6.30;2.53;;;6.50;99.90;;;;;;5047790;28;20430;-68
2022/12/06 02:09:16;;;;;;;5.78;2.05;;;6.50;99.90;;;;;;5045771;28;20025;-68
2022/12/06 02:11:42;;;;;;;2.22;1.77;;;6.50;99.90;;;;;;5041279;28;20078;-70
2022/12/06 02:14:12;;;;;;;5.93;1.63;;;6.50;99.90;;;;;;5049726;28;20100;-68
2022/12/06 02:16:52;;;;;;;6.25;1.80;;;6.50;99.90;;;;;;5038705;28;20028;-67
2022/12/06 02:20:06;;;;;;;4.18;1.83;;;6.50;99.90;;;;;;5048135;28;20025;-66
2022/12/06 02:22:50;;;;;;;4.50;1.83;;;6.50;99.90;;;;;;5028015;28;20096;-71
2022/12/06 02:25:42;;;;;;;5.45;2.03;;;6.50;99.90;;;;;;5035844;28;20077;-71
2022/12/06 02:28:56;;;;;;;10.05;1.98;;;6.50;99.90;;;;;;5049221;28;20060;-70
2022/12/06 02:31:25;;;;;;;5.90;2.10;;;6.50;99.90;;;;;;5032588;28;20364;-72
2022/12/06 02:33:57;;;;;;;4.07;1.95;;;6.50;99.90;;;;;;5039809;28;20033;-68
2022/12/06 02:36:40;;;;;;;6.00;1.50;;;6.50;99.90;;;;;;5033700;28;20686;-69
2022/12/06 02:39:11;;;;;;;6.47;1.83;;;6.50;99.90;;;;;;5019541;28;20096;-68
2022/12/06 02:41:52;;;;;;;3.70;1.80;;;6.60;99.90;;;;;;5032690;28;20063;-68
2022/12/06 02:44:27;;;;;;;3.35;2.15;;;6.60;99.90;;;;;;5032664;28;20029;-69
2022/12/06 02:46:56;;;;;;;6.85;2.33;;;6.60;99.90;;;;;;5032989;28;20033;-68
2022/12/06 02:49:24;;;;;;;2.00;1.60;;;6.60;99.90;;;;;;5022244;28;20120;-66
2022/12/06 02:51:51;;;;;;;9.95;2.10;;;6.70;99.90;;;;;;5013347;28;20029;-68
2022/12/06 02:54:18;;;;;;;6.63;2.17;;;6.70;99.90;;;;;;5013199;28;20049;-69
2022/12/06 02:56:44;;;;;;;4.65;1.55;;;6.70;99.90;;;;;;5013118;28;20028;-70
2022/12/06 02:59:09;;;;;;;3.90;1.60;;;6.70;99.90;;;;;;5012994;28;20104;-70
2022/12/06 03:01:44;;;;;;;3.80;1.88;;;6.70;99.90;;;;;;5013629;28;20326;-69
2022/12/06 03:04:45;;;;;;;3.55;1.85;;;6.70;99.90;;;;;;5013708;28;20030;-67
2022/12/06 03:07:25;;;;;;;5.18;2.17;;;6.70;99.90;;;;;;5017484;28;20025;-69
2022/12/06 03:10:19;;;;;;;5.18;1.90;;;6.70;99.90;;;;;;5028330;28;20026;-68
2022/12/06 03:12:50;;;;;;;4.97;1.88;;;6.70;99.90;;;;;;5013601;28;20034;-66
2022/12/06 03:15:33;;;;;;;5.00;2.47;;;6.70;99.90;;;;;;5013452;28;20477;-66
2022/12/06 03:18:17;;;;;;;4.43;2.25;;;6.60;99.90;;;;;;5013580;28;20022;-68
2022/12/06 03:21:06;;;;;;;3.72;1.90;;;6.60;99.90;;;;;;5013643;28;20106;-70
2022/12/06 03:23:39;;;;;;;7.88;2.00;;;6.50;99.90;;;;;;5013596;28;20083;-67
2022/12/06 03:26:09;;;;;;;6.35;2.30;;;6.50;99.90;;;;;;5013583;28;20025;-67
2022/12/06 03:28:37;;;;;;;6.90;2.35;;;6.40;99.90;;;;;;5016712;28;20026;-69
2022/12/06 03:31:08;;;;;;;5.15;2.17;;;6.30;99.90;;;;;;5028069;28;20175;-67
2022/12/06 03:33:41;;;;;;;5.70;2.00;;;6.20;99.90;;;;;;5049276;28;20101;-68
2022/12/06 03:36:09;;;;;;;6.07;2.53;;;6.20;99.90;;;;;;5038990;28;20021;-69
2022/12/06 03:38:44;;;;;;;4.65;2.03;;;6.10;99.90;;;;;;5032946;28;20399;-67
2022/12/06 03:41:13;;;;;;;7.18;2.20;;;6.00;99.90;;;;;;5032711;28;20018;-71
2022/12/06 03:43:38;;;;;;;6.20;2.72;;;6.00;99.90;;;;;;5033401;28;20030;-69
2022/12/06 03:46:11;;;;;;;7.90;2.42;;;5.90;99.90;;;;;;5033162;28;20046;-68
2022/12/06 03:48:45;;;;;;;8.85;2.70;;;5.90;99.90;;;;;;5032680;28;20037;-70
2022/12/06 03:51:16;;;;;;;8.40;2.80;;;5.80;99.90;;;;;;5032769;28;20044;-70
2022/12/06 03:53:50;;;;;;;7.30;2.50;;;5.80;99.90;;;;;;5016739;28;20366;-70
2022/12/06 03:56:16;;;;;;;9.00;2.88;;;5.70;99.90;;;;;;5013199;28;20270;-68
2022/12/06 03:58:42;;;;;;;6.05;2.47;;;5.70;99.90;;;;;;5013231;28;20026;-70
2022/12/06 04:01:07;;;;;;;11.05;3.25;;;5.70;99.90;;;;;;5013078;28;20401;-70
2022/12/06 04:03:33;;;;;;;8.70;3.13;;;5.60;99.90;;;;;;5012828;28;20030;-68
2022/12/06 04:06:04;;;;;;;9.70;4.35;;;5.60;99.90;;;;;;5013162;28;20022;-68
2022/12/06 04:08:30;;;;;;;8.93;3.70;;;5.50;99.90;;;;;;5013343;28;20076;-67
2022/12/06 04:10:56;;;;;;;9.45;3.05;;;5.50;99.90;;;;;;5024311;28;20041;-69
2022/12/06 04:13:21;;;;;;;10.30;3.63;;;5.50;99.90;;;;;;5042333;28;20021;-67
2022/12/06 04:15:47;;;;;;;10.15;2.75;;;5.50;99.90;;;;;;5044125;28;20560;-68
2022/12/06 04:18:13;;;;;;;9.05;3.33;;;5.50;99.90;;;;;;5015569;28;20030;-70
2022/12/06 04:23:38;;;;;;;8.20;2.88;;;5.60;99.90;;;;;;5016885;28;20033;-67
2022/12/06 04:26:06;;;;;;;6.13;2.85;;;5.60;99.90;;;;;;5016905;28;20041;-68
2022/12/06 04:39:29;;;;;;;8.23;2.47;;;5.70;99.90;;;;;;5016592;28;20113;-68
2022/12/06 04:44:40;;;;;;;9.55;3.58;;;5.60;99.90;;;;;;5016398;28;20049;-70
2022/12/06 04:47:06;;;;;;;12.52;5.55;;;5.60;99.90;;;;;;5016364;28;20034;-70
2022/12/06 04:49:32;;;;;;;8.02;2.90;;;5.60;99.90;;;;;;5016766;28;20030;-69
2022/12/06 04:51:58;;;;;;;7.90;2.72;;;5.50;99.90;;;;;;5021724;28;20045;-69
2022/12/06 04:54:25;;;;;;;7.00;3.40;;;5.50;99.90;;;;;;5044502;28;20029;-69
2022/12/06 04:56:51;;;;;;;9.35;2.92;;;5.40;99.90;;;;;;5040156;28;20017;-69
2022/12/06 04:59:19;;;;;;;10.32;4.10;;;5.40;99.90;;;;;;5038273;28;20374;-70
2022/12/06 05:01:44;;;;;;;10.23;3.50;;;5.30;99.90;;;;;;5035746;28;20474;-68
2022/12/06 05:04:10;;;;;;;6.88;3.33;;;5.20;99.90;;;;;;5035920;28;20029;-67
2022/12/06 05:06:35;;;;;;;10.80;3.42;;;5.20;99.90;;;;;;5035694;28;20071;-70
2022/12/06 05:09:02;;;;;;;14.80;4.35;;;5.10;99.90;;;;;;5035672;28;20418;-67
2022/12/06 05:11:27;;;;;;;12.40;3.83;;;5.10;99.90;;;;;;5035702;28;20037;-68
2022/12/06 05:13:53;;;;;;;8.13;3.28;;;5.10;99.90;;;;;;5035633;28;20017;-68
2022/12/06 05:16:19;;;;;;;9.70;3.38;;;5.10;99.90;;;;;;5035682;28;20029;-69
2022/12/06 05:18:44;;;;;;;7.85;3.47;;;5.00;99.90;;;;;;5035848;28;20021;-69
2022/12/06 05:21:14;;;;;;;8.60;3.10;;;5.00;99.90;;;;;;5034573;28;20468;-69
2022/12/06 05:23:40;;;;;;;8.85;3.05;;;4.90;99.90;;;;;;5035442;28;20105;-68
2022/12/06 05:26:17;;;;;;;7.25;3.25;;;4.90;99.90;;;;;;5035533;28;20536;-68
2022/12/06 05:28:45;;;;;;;8.07;3.20;;;4.80;99.90;;;;;;5035548;28;20025;-68
2022/12/06 05:31:11;;;;;;;12.13;4.57;;;4.80;99.90;;;;;;5035639;28;20032;-67
2022/12/06 05:33:38;;;;;;;15.32;6.07;;;4.80;99.90;;;;;;5035322;28;20029;-69
2022/12/06 05:36:14;;;;;;;10.23;4.60;;;4.80;99.90;;;;;;5035071;28;20128;-67
2022/12/06 05:38:40;;;;;;;16.25;5.60;;;4.80;99.90;;;;;;5035454;28;20022;-70
2022/12/06 05:41:07;;;;;;;14.27;5.85;;;4.90;99.90;;;;;;5033685;28;20029;-68
2022/12/06 05:43:32;;;;;;;12.52;4.25;;;4.80;99.90;;;;;;5035559;28;20085;-70
2022/12/06 05:45:58;;;;;;;10.38;3.70;;;4.70;99.90;;;;;;5036579;28;20050;-70
2022/12/06 05:48:24;;;;;;;15.88;6.38;;;4.70;99.90;;;;;;5032326;28;20030;-66
2022/12/06 05:50:50;;;;;;;9.93;3.83;;;4.60;99.90;;;;;;5034998;28;20036;-70
2022/12/06 05:53:17;;;;;;;8.45;3.20;;;4.60;99.90;;;;;;5033661;28;20025;-68
2022/12/06 05:55:43;;;;;;;11.30;3.80;;;4.50;99.90;;;;;;5035178;28;20029;-68
2022/12/06 05:58:09;;;;;;;11.35;4.35;;;4.50;99.90;;;;;;5019336;28;20407;-70
2022/12/06 06:00:35;;;;;;;15.63;6.30;;;4.40;99.90;;;;;;5014631;28;20026;-70
2022/12/06 06:03:01;;;;;;;12.93;5.30;;;4.40;99.90;;;;;;5028435;28;20307;-68
2022/12/06 06:05:27;;;;;;;12.02;5.18;;;4.30;99.90;;;;;;5034696;28;20022;-68
2022/12/06 06:07:53;;;;;;;12.30;5.30;;;4.30;99.90;;;;;;5034688;28;20361;-70
2022/12/06 06:10:20;;;;;;;14.88;5.40;;;4.30;99.90;;;;;;5034470;28;20517;-67
2022/12/06 06:12:45;;;;;;;13.68;4.90;;;4.30;99.90;;;;;;5034592;28;20025;-68
2022/12/06 06:15:12;;;;;;;11.60;4.40;;;4.30;99.90;;;;;;5033393;28;20030;-68
2022/12/06 06:17:38;;;;;;;14.50;4.53;;;4.30;99.90;;;;;;5018947;28;20068;-69
2022/12/06 06:20:05;;;;;;;11.07;4.32;;;4.30;99.90;;;;;;5014755;28;20339;-69
2022/12/06 06:22:32;;;;;;;13.48;4.22;;;4.30;99.90;;;;;;5014601;28;20045;-71
2022/12/06 06:24:59;;;;;;;12.10;5.07;;;4.30;99.90;;;;;;5014993;28;20108;-67
2022/12/06 06:27:24;;;;;;;13.05;5.18;;;4.30;99.90;;;;;;5014567;28;20026;-67
2022/12/06 06:29:50;;;;;;;12.68;5.30;;;4.30;99.90;;;;;;5013217;28;20048;-69
2022/12/06 06:32:15;;;;;;;13.95;5.00;;;4.20;99.90;;;;;;5017941;28;20420;-68
2022/12/06 06:34:41;;;;;;;11.85;5.07;;;4.20;99.90;;;;;;5013927;28;20068;-70
2022/12/06 06:37:06;;;;;;;12.10;4.50;;;4.10;99.90;;;;;;5014465;28;20022;-70
2022/12/06 06:39:32;;;;;;;14.10;4.53;;;4.10;99.90;;;;;;5014758;28;20029;-68
2022/12/06 06:41:57;;;;;;;14.63;5.03;;;4.00;99.90;;;;;;5014551;28;20037;-68
2022/12/06 06:44:23;;;;;;;15.80;5.15;;;4.00;99.90;;;;;;5014066;28;20060;-69
2022/12/06 06:46:48;;;;;;;12.18;4.75;;;4.00;99.90;;;;;;5014183;28;20033;-68
2022/12/06 06:49:14;;;;;;;13.57;4.65;;;4.00;99.90;;;;;;5014692;28;20044;-68
2022/12/06 06:51:40;;;;;;;11.15;4.53;;;3.90;99.90;;;;;;5013958;28;20477;-67
2022/12/06 06:54:05;;;;;;;9.85;3.88;;;3.90;99.90;;;;;;5023209;28;20072;-68
2022/12/06 06:56:31;;;;;;;13.63;4.80;;;3.90;99.90;;;;;;5033546;28;20017;-69
2022/12/06 06:58:56;;;;;;;10.60;4.45;;;3.80;99.90;;;;;;5033329;28;20029;-67
2022/12/06 07:01:23;;;;;;;15.35;4.65;;;3.80;99.90;;;;;;5033568;28;20021;-68
2022/12/06 07:03:50;;;;;;;14.23;4.80;;;3.80;99.90;;;;;;5026359;28;20034;-68
2022/12/06 07:06:16;;;;;;;13.48;4.72;;;3.80;99.90;;;;;;5013910;28;20018;-68
2022/12/06 07:08:43;;;;;;;11.65;4.85;;;3.80;99.90;;;;;;5020485;28;20017;-68
2022/12/06 07:11:10;;;;;;;15.27;5.15;;;3.80;99.90;;;;;;5033526;28;20039;-68
2022/12/06 07:13:38;;;;;;;19.10;6.15;;;3.80;99.90;;;;;;5033027;28;20025;-67
2022/12/06 07:16:05;;;;;;;15.73;6.25;;;3.80;99.90;;;;;;5033400;28;20052;-68
2022/12/06 07:18:31;;;;;;;21.88;9.95;;;3.80;99.90;;;;;;5031449;28;20022;-67
2022/12/06 07:21:02;;;;;;;18.67;8.40;;;3.80;99.90;;;;;;5013550;28;20033;-68
2022/12/06 07:23:29;;;;;;;24.60;10.82;;;3.80;99.90;;;;;;5013835;28;20022;-68
2022/12/06 07:26:06;;;;;;;18.27;7.45;;;3.80;99.90;;;;;;5013704;28;20037;-67
2022/12/06 07:28:34;;;;;;;15.70;6.30;;;3.80;99.90;;;;;;5013603;28;20022;-68
2022/12/06 07:31:11;;;;;;;15.40;6.22;;;3.80;99.90;;;;;;5020322;28;20442;-69
2022/12/06 07:33:37;;;;;;;16.15;7.38;;;3.70;99.90;;;;;;5032711;28;20025;-68
2022/12/06 07:36:03;;;;;;;21.55;8.68;;;3.80;99.90;;;;;;5019033;28;20033;-71
2022/12/06 07:38:29;;;;;;;19.50;7.75;;;3.70;99.90;;;;;;5021436;28;20525;-69
2022/12/06 07:44:59;;;;;;;21.17;8.40;;;3.70;99.90;;;;;;5031843;28;20029;-68
2022/12/06 07:46:40;;;;;;;15.90;6.70;;;3.80;99.90;;;;;;5031289;28;20782;-69
2022/12/06 07:49:06;;;;;;;15.60;5.82;;;3.80;99.90;;;;;;5032653;28;20446;-66
2022/12/06 07:51:32;;;;;;;17.25;6.18;;;3.80;99.90;;;;;;5027017;28;20033;-68
2022/12/06 07:53:59;;;;;;;15.38;6.32;;;3.80;99.90;;;;;;5030216;28;20408;-68
2022/12/06 07:56:25;;;;;;;11.73;5.82;;;3.90;99.90;;;;;;5032259;28;20030;-69
2022/12/06 07:58:50;;;;;;;17.40;6.72;;;4.00;99.90;;;;;;5032700;28;20055;-66
2022/12/06 08:01:17;;;;;;;15.68;6.80;;;4.00;99.90;;;;;;5024145;28;20505;-66
2022/12/06 08:03:42;;;;;;;19.95;7.60;;;4.10;99.90;;;;;;5032008;28;20492;-65
2022/12/06 08:06:08;;;;;;;15.82;7.10;;;4.10;99.90;;;;;;5029046;28;20053;-69
2022/12/06 08:08:34;;;;;;;17.08;6.25;;;4.20;99.90;;;;;;5023321;28;20025;-65
2022/12/06 08:11:00;;;;;;;12.63;5.82;;;4.40;99.90;;;;;;5032189;28;20476;-69
2022/12/06 08:13:27;;;;;;;13.27;5.13;;;4.50;99.90;;;;;;5032560;28;20030;-68
2022/12/06 08:15:52;;;;;;;14.48;5.60;;;4.70;99.90;;;;;;5031996;28;20098;-69
2022/12/06 08:18:18;;;;;;;13.63;5.50;;;4.80;99.90;;;;;;5031398;28;20018;-67
2022/12/06 08:20:43;;;;;;;12.65;5.35;;;5.00;99.90;;;;;;5029741;28;20037;-67
2022/12/06 08:23:09;;;;;;;15.77;5.40;;;5.10;99.90;;;;;;5031655;28;20040;-70
2022/12/06 08:25:34;;;;;;;13.13;5.60;;;5.20;99.90;;;;;;5025643;28;20025;-69
2022/12/06 08:28:00;;;;;;;10.25;4.25;;;5.30;99.90;;;;;;5031579;28;20033;-67
2022/12/06 08:30:26;;;;;;;15.80;4.60;;;5.50;99.90;;;;;;5032218;28;20034;-67
2022/12/06 08:32:51;;;;;;;10.52;4.05;;;5.50;99.90;;;;;;5032156;28;20034;-70
2022/12/06 08:35:17;;;;;;;9.50;4.05;;;5.60;99.90;;;;;;5031711;28;20104;-69
2022/12/06 08:37:42;;;;;;;10.20;3.78;;;5.70;99.90;;;;;;5031875;28;20024;-68
2022/12/06 08:40:08;;;;;;;10.82;3.90;;;5.80;99.90;;;;;;5032161;28;20025;-69
2022/12/06 08:42:34;;;;;;;12.48;4.00;;;5.90;99.90;;;;;;5031709;28;20369;-69
2022/12/06 08:44:59;;;;;;;8.05;3.70;;;6.00;99.90;;;;;;5031059;28;20045;-68
2022/12/06 08:47:25;;;;;;;7.50;3.33;;;6.10;99.90;;;;;;5031791;28;20071;-66
2022/12/06 08:49:50;;;;;;;11.57;4.10;;;6.10;99.90;;;;;;5027685;28;20029;-67
2022/12/06 08:52:16;;;;;;;15.48;5.32;;;6.20;99.90;;;;;;5030128;28;20437;-70
2022/12/06 08:54:42;;;;;;;38.05;20.90;;;6.20;99.90;;;;;;5031231;28;20029;-67
2022/12/06 08:57:08;;;;;;;16.63;6.90;;;6.30;99.90;;;;;;5034799;28;20021;-68
2022/12/06 08:59:33;;;;;;;36.38;10.75;;;6.30;99.90;;;;;;5030337;28;20056;-69
2022/12/06 09:01:59;;;;;;;13.40;4.22;;;6.30;99.90;;;;;;5030333;28;20378;-68
2022/12/06 09:04:25;;;;;;;11.48;4.20;;;6.40;99.90;;;;;;5035019;28;20050;-70
2022/12/06 09:06:50;;;;;;;8.77;3.78;;;6.50;99.90;;;;;;5035168;28;20028;-71
2022/12/06 09:09:17;;;;;;;28.40;8.15;;;6.60;99.90;;;;;;5035063;28;20025;-70
2022/12/06 09:11:44;;;;;;;23.35;6.03;;;6.70;99.90;;;;;;5035418;28;20037;-68
2022/12/06 09:14:15;;;;;;;11.90;4.20;;;6.90;99.90;;;;;;5035352;28;20091;-70
2022/12/06 09:16:42;;;;;;;15.90;4.30;;;7.10;99.90;;;;;;5034578;28;20060;-70
2022/12/06 09:19:08;;;;;;;12.77;3.85;;;7.30;99.90;;;;;;5034187;28;20084;-68
2022/12/06 09:21:34;;;;;;;19.27;5.75;;;7.40;99.90;;;;;;5035500;28;20024;-69
2022/12/06 09:24:00;;;;;;;28.10;8.32;;;7.50;99.90;;;;;;5036044;28;20097;-70
2022/12/06 09:26:27;;;;;;;30.35;8.07;;;7.60;99.90;;;;;;5035122;28;20430;-68
2022/12/06 09:28:54;;;;;;;21.00;5.40;;;7.70;99.90;;;;;;5033758;28;20100;-71
2022/12/06 09:31:20;;;;;;;10.40;3.50;;;7.70;99.90;;;;;;5033700;28;20033;-69
2022/12/06 09:33:46;;;;;;;14.00;4.82;;;7.90;99.90;;;;;;5035050;28;20082;-69
2022/12/06 09:36:26;;;;;;;11.02;3.53;;;8.00;99.90;;;;;;5035051;28;20117;-69
2022/12/06 09:39:15;;;;;;;11.48;3.90;;;8.20;99.90;;;;;;5035175;28;20038;-69
2022/12/06 09:41:49;;;;;;;9.88;3.95;;;8.30;99.90;;;;;;5034673;28;20104;-71
2022/12/06 09:44:26;;;;;;;13.43;4.57;;;8.40;99.90;;;;;;5028694;28;20047;-67
2022/12/06 09:47:27;;;;;;;11.68;4.50;;;8.50;99.90;;;;;;5027490;28;20029;-67
2022/12/06 09:49:58;;;;;;;10.23;3.25;;;8.60;99.90;;;;;;5029926;28;20144;-68
2022/12/06 09:52:29;;;;;;;15.80;4.27;;;8.60;99.90;;;;;;5034845;28;20473;-70
2022/12/06 09:55:25;;;;;;;11.00;3.55;;;8.70;99.90;;;;;;5034373;28;20032;-68
2022/12/06 09:57:58;;;;;;;9.93;3.13;;;8.70;99.90;;;;;;5034213;28;20045;-67
2022/12/06 10:00:26;;;;;;;20.17;4.95;;;8.80;99.90;;;;;;5034570;28;20028;-68
2022/12/06 10:02:54;;;;;;;10.77;3.28;;;8.80;99.90;;;;;;5034535;28;20061;-70
2022/12/06 10:05:59;;;;;;;23.40;6.03;;;8.90;99.90;;;;;;5027100;28;20025;-66
2022/12/06 10:08:59;;;;;;;9.35;3.40;;;8.80;99.90;;;;;;5032745;28;20366;-69
2022/12/06 10:12:24;;;;;;;7.38;2.50;;;8.70;99.90;;;;;;5034249;28;20033;-69
2022/12/06 10:14:56;;;;;;;6.85;2.35;;;8.50;99.90;;;;;;5032452;28;20042;-69
2022/12/06 10:17:46;;;;;;;6.93;3.40;;;8.30;99.90;;;;;;5033875;28;20028;-69
2022/12/06 10:20:27;;;;;;;8.35;2.58;;;8.40;99.90;;;;;;5014644;28;20023;-67
2022/12/06 10:23:13;;;;;;;9.55;2.72;;;9.20;99.90;;;;;;5028524;28;20444;-69
2022/12/06 10:26:11;;;;;;;15.38;3.78;;;10.10;99.90;;;;;;5034570;28;20119;-66
2022/12/06 10:28:49;;;;;;;7.55;2.42;;;11.30;99.90;;;;;;5028058;28;20021;-66
2022/12/06 10:31:20;;;;;;;16.52;4.28;;;12.40;99.90;;;;;;5028993;28;20068;-66
2022/12/06 10:33:51;;;;;;;3.65;1.30;;;13.30;99.90;;;;;;5024226;28;20021;-66
2022/12/06 10:36:37;;;;;;;4.17;1.47;;;14.00;99.90;;;;;;5032225;28;20405;-66
2022/12/06 10:39:28;;;;;;;5.28;1.67;;;14.60;99.90;;;;;;5027303;28;20029;-66
2022/12/06 10:42:15;;;;;;;25.00;5.90;;;15.10;99.90;;;;;;5020781;28;20681;-66
2022/12/06 10:44:46;;;;;;;10.00;2.70;;;15.70;99.90;;;;;;5032914;28;20103;-67
2022/12/06 10:47:26;;;;;;;5.82;1.90;;;16.20;99.90;;;;;;5033412;28;20460;-66
2022/12/06 10:50:00;;;;;;;4.68;1.33;;;16.60;99.80;;;;;;5033314;28;20041;-66
2022/12/06 10:52:32;;;;;;;8.48;1.58;;;16.90;99.40;;;;;;5028294;28;20120;-66
2022/12/06 10:55:08;;;;;;;9.20;1.90;;;17.20;99.20;;;;;;5033078;28;20021;-66
2022/12/06 10:57:42;;;;;;;9.70;1.77;;;16.80;99.10;;;;;;5024459;28;20017;-66
2022/12/06 11:00:19;;;;;;;8.73;2.33;;;16.40;99.40;;;;;;5028898;28;20029;-66
2022/12/06 11:03:07;;;;;;;2.35;1.05;;;15.80;99.90;;;;;;5015586;28;20514;-66
2022/12/06 11:05:40;;;;;;;1.85;0.85;;;15.30;99.90;;;;;;5027165;28;20040;-66
2022/12/06 11:08:13;;;;;;;4.70;2.10;;;14.80;99.90;;;;;;5027951;28;20346;-66
2022/12/06 11:10:43;;;;;;;3.50;1.38;;;14.30;99.90;;;;;;5014121;28;20041;-66
2022/12/06 11:13:18;;;;;;;5.30;1.58;;;13.70;99.90;;;;;;5029889;28;21221;-66
2022/12/06 11:16:12;;;;;;;6.65;1.50;;;13.40;99.90;;;;;;5032551;28;20021;-66
2022/12/06 11:18:39;;;;;;;9.60;2.67;;;13.00;99.90;;;;;;5020715;28;20481;-66
2022/12/06 11:21:17;;;;;;;5.50;1.85;;;12.80;99.90;;;;;;5016494;28;20033;-66
2022/12/06 11:24:06;;;;;;;9.82;2.70;;;12.60;99.90;;;;;;5031351;28;20025;-67
2022/12/06 11:26:46;;;;;;;10.02;2.40;;;12.20;99.90;;;;;;5019542;28;20454;-66
2022/12/06 11:29:14;;;;;;;11.55;2.40;;;12.00;99.90;;;;;;5031953;28;20055;-66
2022/12/06 11:31:50;;;;;;;13.38;3.20;;;11.80;99.90;;;;;;5032092;28;20114;-66
2022/12/06 11:34:29;;;;;;;6.70;1.33;;;11.80;99.90;;;;;;5031406;28;20028;-66
2022/12/06 11:36:55;;;;;;;4.97;1.30;;;11.90;99.90;;;;;;5032415;28;20156;-66
2022/12/06 11:39:22;;;;;;;3.35;1.23;;;11.80;99.90;;;;;;5032241;28;20021;-67
2022/12/06 11:41:55;;;;;;;3.95;0.80;;;11.90;99.90;;;;;;5031646;28;20091;-66
2022/12/06 11:44:35;;;;;;;12.10;2.17;;;11.80;99.90;;;;;;5031875;28;20399;-66
2022/12/06 11:47:01;;;;;;;21.00;4.60;;;11.70;99.90;;;;;;5028049;28;20033;-66
2022/12/06 11:49:39;;;;;;;7.43;2.03;;;11.60;99.90;;;;;;5032433;28;20021;-66
2022/12/06 11:52:27;;;;;;;4.35;0.95;;;11.60;99.90;;;;;;5031612;28;20030;-66
2022/12/06 11:55:00;;;;;;;10.02;2.80;;;11.80;99.90;;;;;;5032039;28;20116;-66
2022/12/06 11:57:47;;;;;;;3.50;0.93;;;12.00;99.90;;;;;;5030692;28;20374;-66
2022/12/06 12:00:16;;;;;;;2.90;1.15;;;12.00;99.90;;;;;;5032657;28;20095;-66
2022/12/06 12:02:45;;;;;;;3.92;1.15;;;11.90;99.90;;;;;;5032153;28;20021;-67
2022/12/06 12:05:13;;;;;;;4.20;1.20;;;11.70;99.90;;;;;;5031842;28;20033;-66
2022/12/06 12:07:40;;;;;;;6.28;1.33;;;11.50;99.90;;;;;;5030920;28;20428;-67
2022/12/06 12:10:30;;;;;;;2.47;0.77;;;11.40;99.90;;;;;;5029382;28;20025;-67
2022/12/06 12:15:51;;;;;;;1.27;0.82;;;11.20;99.90;;;;;;5032301;28;20083;-67
2022/12/06 12:18:25;;;;;;;2.17;0.75;;;10.90;99.90;;;;;;5032166;28;20028;-68
2022/12/06 12:20:52;;;;;;;3.58;1.00;;;10.70;99.90;;;;;;5032498;28;20819;-68
2022/12/06 12:23:28;;;;;;;5.93;1.02;;;10.70;99.90;;;;;;5032415;28;20022;-67
2022/12/06 12:26:09;;;;;;;2.80;1.15;;;10.70;99.90;;;;;;5032524;28;20029;-67
2022/12/06 12:28:37;;;;;;;4.47;1.08;;;10.70;99.90;;;;;;5040332;28;20029;-67
2022/12/06 12:31:21;;;;;;;4.63;1.02;;;10.70;99.90;;;;;;5037747;28;20128;-67
2022/12/06 12:33:47;;;;;;;2.80;0.57;;;10.90;99.90;;;;;;5037223;28;20037;-67
2022/12/06 12:36:24;;;;;;;3.20;0.80;;;11.20;99.90;;;;;;5034903;28;20109;-67
2022/12/06 12:39:02;;;;;;;1.42;0.70;;;11.40;99.90;;;;;;5045685;28;20158;-67
2022/12/06 12:41:40;;;;;;;3.22;0.52;;;11.50;99.90;;;;;;5038202;28;20458;-67
2022/12/06 12:44:14;;;;;;;7.13;1.02;;;11.40;99.90;;;;;;5036156;28;20104;-68
2022/12/06 12:46:53;;;;;;;1.23;0.50;;;11.30;99.90;;;;;;5045838;28;20025;-67
2022/12/06 12:49:27;;;;;;;3.45;1.05;;;11.20;99.90;;;;;;5040606;28;20029;-70
2022/12/06 12:51:53;;;;;;;4.70;1.10;;;11.10;99.90;;;;;;5051467;28;20380;-70
2022/12/06 12:54:26;;;;;;;1.67;0.73;;;11.20;99.90;;;;;;5036468;28;20021;-71
2022/12/06 12:56:52;;;;;;;1.75;0.60;;;11.20;99.90;;;;;;5044321;28;20078;-68
2022/12/06 12:59:34;;;;;;;5.15;1.15;;;11.00;99.90;;;;;;5039663;28;20063;-70
2022/12/06 13:02:11;;;;;;;3.83;1.13;;;10.90;99.90;;;;;;5037559;28;20024;-68
2022/12/06 13:04:47;;;;;;;2.53;0.85;;;10.70;99.90;;;;;;5043534;28;20458;-68
2022/12/06 13:07:24;;;;;;;3.33;0.80;;;10.60;99.90;;;;;;5023187;28;20041;-68
2022/12/06 13:10:00;;;;;;;5.32;1.00;;;10.50;99.90;;;;;;5036046;28;20500;-68
2022/12/06 13:12:29;;;;;;;3.33;0.98;;;10.40;99.90;;;;;;5030563;28;20040;-68
2022/12/06 13:15:13;;;;;;;2.78;0.52;;;10.30;99.90;;;;;;5038845;28;20026;-68
2022/12/06 13:17:43;;;;;;;3.92;0.40;;;10.30;99.90;;;;;;5043588;28;20021;-70
2022/12/06 13:20:30;;;;;;;4.65;0.80;;;10.20;99.90;;;;;;5026155;28;20108;-67
2022/12/06 13:23:11;;;;;;;2.70;0.70;;;10.10;99.90;;;;;;5043126;28;20032;-67
2022/12/06 13:25:37;;;;;;;3.47;1.17;;;10.10;99.90;;;;;;5050200;28;20115;-70
2022/12/06 13:28:13;;;;;;;4.10;0.98;;;10.10;99.90;;;;;;5037695;28;20020;-67
2022/12/06 13:30:40;;;;;;;1.80;0.70;;;10.10;99.90;;;;;;5047586;28;20037;-67
2022/12/06 13:33:21;;;;;;;3.00;0.75;;;10.20;99.90;;;;;;5041453;28;20049;-69